Terminal Aerodrome Forecast
Issued by NWS Des Moines, IA

Home | Current Version | Previous Version | Text Only | Print | Product List | Glossary On
Versions: 1 2 3 4 5 6 7 8 9 10 11 12 13 14 15
000
FTUS43 KDMX 281139
TAFDSM
TAF
KDSM 281139Z 2812/2912 30005KT P6SM FEW180
     FM281600 29010KT P6SM FEW200
     FM281800 29014G21KT P6SM FEW230
     FM290000 29010KT P6SM FEW210
     FM290300 28005KT P6SM SKC=

USA.gov is the U.S. government's official web portal to all federal, state and local government web resources and services.